sensor_id;sensor_type;location;lat;lon;timestamp;temperature;humidity
15543;DHT22;7873;52.230;12.856;2024-02-26T00:00:05;28.20;32.60
15543;DHT22;7873;52.230;12.856;2024-02-26T00:02:35;28.20;33.50
15543;DHT22;7873;52.230;12.856;2024-02-26T00:05:04;28.10;32.80
15543;DHT22;7873;52.230;12.856;2024-02-26T00:07:31;28.00;33.00
15543;DHT22;7873;52.230;12.856;2024-02-26T00:09:57;28.00;33.10
15543;DHT22;7873;52.230;12.856;2024-02-26T00:12:24;27.90;33.20
15543;DHT22;7873;52.230;12.856;2024-02-26T00:14:50;27.80;33.20
15543;DHT22;7873;52.230;12.856;2024-02-26T00:17:18;27.80;33.40
15543;DHT22;7873;52.230;12.856;2024-02-26T00:19:45;27.70;33.40
15543;DHT22;7873;52.230;12.856;2024-02-26T00:22:12;27.70;33.50
15543;DHT22;7873;52.230;12.856;2024-02-26T00:24:39;27.70;33.70
15543;DHT22;7873;52.230;12.856;2024-02-26T00:27:06;27.60;33.70
15543;DHT22;7873;52.230;12.856;2024-02-26T00:29:32;27.60;33.80
15543;DHT22;7873;52.230;12.856;2024-02-26T00:31:59;27.60;33.80
15543;DHT22;7873;52.230;12.856;2024-02-26T00:34:25;27.50;33.90
15543;DHT22;7873;52.230;12.856;2024-02-26T00:36:53;27.50;33.80
15543;DHT22;7873;52.230;12.856;2024-02-26T00:39:20;27.50;33.80
15543;DHT22;7873;52.230;12.856;2024-02-26T00:41:46;27.50;33.80
15543;DHT22;7873;52.230;12.856;2024-02-26T00:44:13;27.50;33.80
15543;DHT22;7873;52.230;12.856;2024-02-26T00:46:39;27.50;33.90
15543;DHT22;7873;52.230;12.856;2024-02-26T00:49:05;27.50;34.00
15543;DHT22;7873;52.230;12.856;2024-02-26T00:51:32;27.40;34.00
15543;DHT22;7873;52.230;12.856;2024-02-26T00:54:00;27.40;33.90
15543;DHT22;7873;52.230;12.856;2024-02-26T00:56:26;27.40;34.00
15543;DHT22;7873;52.230;12.856;2024-02-26T00:58:53;27.30;34.10
15543;DHT22;7873;52.230;12.856;2024-02-26T01:01:19;27.30;35.00
15543;DHT22;7873;52.230;12.856;2024-02-26T01:03:46;27.30;34.20
15543;DHT22;7873;52.230;12.856;2024-02-26T01:06:12;27.30;34.30
15543;DHT22;7873;52.230;12.856;2024-02-26T01:08:39;27.20;35.10
15543;DHT22;7873;52.230;12.856;2024-02-26T01:11:06;27.20;34.40
15543;DHT22;7873;52.230;12.856;2024-02-26T01:13:33;27.10;34.30
15543;DHT22;7873;52.230;12.856;2024-02-26T01:16:00;27.10;34.50
15543;DHT22;7873;52.230;12.856;2024-02-26T01:18:26;27.10;34.50
15543;DHT22;7873;52.230;12.856;2024-02-26T01:20:53;27.10;34.60
15543;DHT22;7873;52.230;12.856;2024-02-26T01:23:20;27.00;34.70
15543;DHT22;7873;52.230;12.856;2024-02-26T01:25:46;27.00;34.70
15543;DHT22;7873;52.230;12.856;2024-02-26T01:28:15;26.90;34.70
15543;DHT22;7873;52.230;12.856;2024-02-26T01:30:42;26.90;34.70
15543;DHT22;7873;52.230;12.856;2024-02-26T01:33:08;26.90;34.90
15543;DHT22;7873;52.230;12.856;2024-02-26T01:35:35;26.80;35.60
15543;DHT22;7873;52.230;12.856;2024-02-26T01:38:01;26.80;35.00
15543;DHT22;7873;52.230;12.856;2024-02-26T01:40:28;26.70;35.10
15543;DHT22;7873;52.230;12.856;2024-02-26T01:42:55;26.70;35.10
15543;DHT22;7873;52.230;12.856;2024-02-26T01:45:23;26.70;35.20
15543;DHT22;7873;52.230;12.856;2024-02-26T01:47:50;26.70;35.20
15543;DHT22;7873;52.230;12.856;2024-02-26T01:50:17;26.70;35.30
15543;DHT22;7873;52.230;12.856;2024-02-26T01:52:44;26.60;35.30
15543;DHT22;7873;52.230;12.856;2024-02-26T01:55:11;26.60;35.30
15543;DHT22;7873;52.230;12.856;2024-02-26T01:57:39;26.60;35.30
15543;DHT22;7873;52.230;12.856;2024-02-26T02:00:06;26.60;35.40
15543;DHT22;7873;52.230;12.856;2024-02-26T02:02:35;26.50;35.40
15543;DHT22;7873;52.230;12.856;2024-02-26T02:05:04;26.50;35.50
15543;DHT22;7873;52.230;12.856;2024-02-26T02:07:31;26.40;35.60
15543;DHT22;7873;52.230;12.856;2024-02-26T02:09:58;26.40;35.70
15543;DHT22;7873;52.230;12.856;2024-02-26T02:12:25;26.40;35.70
15543;DHT22;7873;52.230;12.856;2024-02-26T02:14:51;26.40;36.60
15543;DHT22;7873;52.230;12.856;2024-02-26T02:17:18;26.30;35.80
15543;DHT22;7873;52.230;12.856;2024-02-26T02:19:46;26.30;35.90
15543;DHT22;7873;52.230;12.856;2024-02-26T02:22:14;26.30;35.90
15543;DHT22;7873;52.230;12.856;2024-02-26T02:24:40;26.30;36.10
15543;DHT22;7873;52.230;12.856;2024-02-26T02:27:07;26.20;36.10
15543;DHT22;7873;52.230;12.856;2024-02-26T02:29:33;26.20;36.20
15543;DHT22;7873;52.230;12.856;2024-02-26T02:32:01;26.20;36.20
15543;DHT22;7873;52.230;12.856;2024-02-26T02:34:29;26.20;36.30
15543;DHT22;7873;52.230;12.856;2024-02-26T02:36:57;26.20;36.30
15543;DHT22;7873;52.230;12.856;2024-02-26T02:39:25;26.20;36.30
15543;DHT22;7873;52.230;12.856;2024-02-26T02:41:51;26.20;37.10
15543;DHT22;7873;52.230;12.856;2024-02-26T02:44:17;26.20;36.30
15543;DHT22;7873;52.230;12.856;2024-02-26T02:46:44;26.10;36.30
15543;DHT22;7873;52.230;12.856;2024-02-26T02:49:10;26.10;36.30
15543;DHT22;7873;52.230;12.856;2024-02-26T02:51:37;26.10;36.20
15543;DHT22;7873;52.230;12.856;2024-02-26T02:54:03;26.10;36.20
15543;DHT22;7873;52.230;12.856;2024-02-26T02:56:31;26.00;36.40
15543;DHT22;7873;52.230;12.856;2024-02-26T02:58:58;26.00;36.40
15543;DHT22;7873;52.230;12.856;2024-02-26T03:01:24;26.00;36.50
15543;DHT22;7873;52.230;12.856;2024-02-26T03:03:51;26.00;36.30
15543;DHT22;7873;52.230;12.856;2024-02-26T03:06:17;26.00;36.30
15543;DHT22;7873;52.230;12.856;2024-02-26T03:08:44;26.00;36.50
15543;DHT22;7873;52.230;12.856;2024-02-26T03:11:12;26.00;36.40
15543;DHT22;7873;52.230;12.856;2024-02-26T03:13:41;26.00;36.60
15543;DHT22;7873;52.230;12.856;2024-02-26T03:16:08;26.00;36.50
15543;DHT22;7873;52.230;12.856;2024-02-26T03:18:34;26.00;36.60
15543;DHT22;7873;52.230;12.856;2024-02-26T03:21:01;25.90;36.50
15543;DHT22;7873;52.230;12.856;2024-02-26T03:23:27;25.90;36.60
15543;DHT22;7873;52.230;12.856;2024-02-26T03:25:55;25.80;36.70
15543;DHT22;7873;52.230;12.856;2024-02-26T03:28:21;25.80;36.80
15543;DHT22;7873;52.230;12.856;2024-02-26T03:30:49;25.80;36.90
15543;DHT22;7873;52.230;12.856;2024-02-26T03:33:15;25.80;36.80
15543;DHT22;7873;52.230;12.856;2024-02-26T03:35:42;25.80;36.90
15543;DHT22;7873;52.230;12.856;2024-02-26T03:38:09;25.70;36.70
15543;DHT22;7873;52.230;12.856;2024-02-26T03:40:35;25.70;36.90
15543;DHT22;7873;52.230;12.856;2024-02-26T03:43:02;25.70;36.90
15543;DHT22;7873;52.230;12.856;2024-02-26T03:45:30;25.70;36.90
15543;DHT22;7873;52.230;12.856;2024-02-26T03:47:57;25.70;36.90
15543;DHT22;7873;52.230;12.856;2024-02-26T03:50:24;25.70;37.00
15543;DHT22;7873;52.230;12.856;2024-02-26T03:52:50;25.60;36.60
15543;DHT22;7873;52.230;12.856;2024-02-26T03:55:17;25.60;37.00
15543;DHT22;7873;52.230;12.856;2024-02-26T03:57:50;25.60;37.10
15543;DHT22;7873;52.230;12.856;2024-02-26T04:00:16;25.70;36.60
15543;DHT22;7873;52.230;12.856;2024-02-26T04:02:43;25.70;36.30
15543;DHT22;7873;52.230;12.856;2024-02-26T04:05:11;25.80;36.20
15543;DHT22;7873;52.230;12.856;2024-02-26T04:07:38;25.80;36.90
15543;DHT22;7873;52.230;12.856;2024-02-26T04:10:08;25.80;36.00
15543;DHT22;7873;52.230;12.856;2024-02-26T04:12:35;25.90;36.70
15543;DHT22;7873;52.230;12.856;2024-02-26T04:15:02;25.90;35.80
15543;DHT22;7873;52.230;12.856;2024-02-26T04:17:28;26.00;35.70
15543;DHT22;7873;52.230;12.856;2024-02-26T04:19:55;26.00;35.70
15543;DHT22;7873;52.230;12.856;2024-02-26T04:22:23;26.00;35.70
15543;DHT22;7873;52.230;12.856;2024-02-26T04:24:49;26.00;35.70
15543;DHT22;7873;52.230;12.856;2024-02-26T04:27:15;26.00;35.60
15543;DHT22;7873;52.230;12.856;2024-02-26T04:29:42;26.00;35.50
15543;DHT22;7873;52.230;12.856;2024-02-26T04:32:09;26.00;35.50
15543;DHT22;7873;52.230;12.856;2024-02-26T04:34:35;26.00;35.60
15543;DHT22;7873;52.230;12.856;2024-02-26T04:37:02;26.00;35.80
15543;DHT22;7873;52.230;12.856;2024-02-26T04:39:30;25.80;36.10
15543;DHT22;7873;52.230;12.856;2024-02-26T04:41:57;25.70;36.00
15543;DHT22;7873;52.230;12.856;2024-02-26T04:44:23;25.50;35.90
15543;DHT22;7873;52.230;12.856;2024-02-26T04:46:50;25.40;35.80
15543;DHT22;7873;52.230;12.856;2024-02-26T04:49:16;25.40;36.70
15543;DHT22;7873;52.230;12.856;2024-02-26T04:51:43;25.40;34.80
15543;DHT22;7873;52.230;12.856;2024-02-26T04:54:09;25.40;35.70
15543;DHT22;7873;52.230;12.856;2024-02-26T04:56:37;25.30;36.30
15543;DHT22;7873;52.230;12.856;2024-02-26T04:59:03;25.30;36.60
15543;DHT22;7873;52.230;12.856;2024-02-26T05:01:30;25.20;36.70
15543;DHT22;7873;52.230;12.856;2024-02-26T05:03:56;25.20;36.90
15543;DHT22;7873;52.230;12.856;2024-02-26T05:06:23;25.20;37.00
15543;DHT22;7873;52.230;12.856;2024-02-26T05:08:49;25.20;37.00
15543;DHT22;7873;52.230;12.856;2024-02-26T05:11:16;25.10;37.00
15543;DHT22;7873;52.230;12.856;2024-02-26T05:13:44;25.10;37.10
15543;DHT22;7873;52.230;12.856;2024-02-26T05:16:11;25.10;37.00
15543;DHT22;7873;52.230;12.856;2024-02-26T05:18:38;25.10;36.70
15543;DHT22;7873;52.230;12.856;2024-02-26T05:21:04;25.20;35.60
15543;DHT22;7873;52.230;12.856;2024-02-26T05:23:31;25.00;33.60
15543;DHT22;7873;52.230;12.856;2024-02-26T05:25:57;24.90;33.20
15543;DHT22;7873;52.230;12.856;2024-02-26T05:28:24;24.90;32.10
15543;DHT22;7873;52.230;12.856;2024-02-26T05:30:51;24.70;32.30
15543;DHT22;7873;52.230;12.856;2024-02-26T05:33:18;24.60;32.20
15543;DHT22;7873;52.230;12.856;2024-02-26T05:35:44;24.40;30.70
15543;DHT22;7873;52.230;12.856;2024-02-26T05:38:11;24.40;31.20
15543;DHT22;7873;52.230;12.856;2024-02-26T05:40:37;24.60;31.80
15543;DHT22;7873;52.230;12.856;2024-02-26T05:43:04;24.80;32.40
15543;DHT22;7873;52.230;12.856;2024-02-26T05:45:31;24.80;31.70
15543;DHT22;7873;52.230;12.856;2024-02-26T05:47:59;24.80;31.20
15543;DHT22;7873;52.230;12.856;2024-02-26T05:50:25;24.80;31.00
15543;DHT22;7873;52.230;12.856;2024-02-26T05:52:52;24.80;30.70
15543;DHT22;7873;52.230;12.856;2024-02-26T05:55:18;24.80;30.70
15543;DHT22;7873;52.230;12.856;2024-02-26T05:57:45;24.90;31.00
15543;DHT22;7873;52.230;12.856;2024-02-26T06:00:12;24.90;30.90
15543;DHT22;7873;52.230;12.856;2024-02-26T06:02:39;25.00;31.10
15543;DHT22;7873;52.230;12.856;2024-02-26T06:05:07;25.00;31.20
15543;DHT22;7873;52.230;12.856;2024-02-26T06:07:34;25.00;31.30
15543;DHT22;7873;52.230;12.856;2024-02-26T06:10:01;25.00;31.40
15543;DHT22;7873;52.230;12.856;2024-02-26T06:12:27;24.90;31.40
15543;DHT22;7873;52.230;12.856;2024-02-26T06:14:56;24.90;31.60
15543;DHT22;7873;52.230;12.856;2024-02-26T06:17:22;24.80;31.70
15543;DHT22;7873;52.230;12.856;2024-02-26T06:19:49;24.80;32.20
15543;DHT22;7873;52.230;12.856;2024-02-26T06:22:16;24.80;31.80
15543;DHT22;7873;52.230;12.856;2024-02-26T06:24:43;24.90;31.90
15543;DHT22;7873;52.230;12.856;2024-02-26T06:27:09;24.80;31.90
15543;DHT22;7873;52.230;12.856;2024-02-26T06:29:36;24.90;32.30
15543;DHT22;7873;52.230;12.856;2024-02-26T06:32:02;24.90;33.10
15543;DHT22;7873;52.230;12.856;2024-02-26T06:34:29;24.90;33.30
15543;DHT22;7873;52.230;12.856;2024-02-26T06:36:56;25.00;32.40
15543;DHT22;7873;52.230;12.856;2024-02-26T06:39:23;24.80;33.10
15543;DHT22;7873;52.230;12.856;2024-02-26T06:41:50;24.50;29.80
15543;DHT22;7873;52.230;12.856;2024-02-26T06:44:23;24.30;29.60
15543;DHT22;7873;52.230;12.856;2024-02-26T06:46:50;24.10;29.80
15543;DHT22;7873;52.230;12.856;2024-02-26T06:49:16;23.60;26.60
15543;DHT22;7873;52.230;12.856;2024-02-26T06:51:43;23.00;26.10
15543;DHT22;7873;52.230;12.856;2024-02-26T06:54:09;22.40;26.50
15543;DHT22;7873;52.230;12.856;2024-02-26T06:56:37;22.10;26.80
15543;DHT22;7873;52.230;12.856;2024-02-26T06:59:03;21.90;27.50
15543;DHT22;7873;52.230;12.856;2024-02-26T07:01:30;21.80;27.60
15543;DHT22;7873;52.230;12.856;2024-02-26T07:03:56;21.70;28.40
15543;DHT22;7873;52.230;12.856;2024-02-26T07:06:23;21.60;28.80
15543;DHT22;7873;52.230;12.856;2024-02-26T07:08:50;21.60;28.90
15543;DHT22;7873;52.230;12.856;2024-02-26T07:11:16;21.50;29.60
15543;DHT22;7873;52.230;12.856;2024-02-26T07:13:45;21.70;28.70
15543;DHT22;7873;52.230;12.856;2024-02-26T07:16:12;22.10;28.90
15543;DHT22;7873;52.230;12.856;2024-02-26T07:18:38;22.40;28.90
15543;DHT22;7873;52.230;12.856;2024-02-26T07:21:05;22.60;29.50
15543;DHT22;7873;52.230;12.856;2024-02-26T07:23:31;22.80;30.00
15543;DHT22;7873;52.230;12.856;2024-02-26T07:25:58;23.00;29.30
15543;DHT22;7873;52.230;12.856;2024-02-26T07:28:25;23.10;29.40
15543;DHT22;7873;52.230;12.856;2024-02-26T07:30:53;23.30;29.20
15543;DHT22;7873;52.230;12.856;2024-02-26T07:33:19;23.40;29.30
15543;DHT22;7873;52.230;12.856;2024-02-26T07:35:46;23.40;29.40
15543;DHT22;7873;52.230;12.856;2024-02-26T07:38:12;23.40;29.50
15543;DHT22;7873;52.230;12.856;2024-02-26T07:40:39;23.50;29.60
15543;DHT22;7873;52.230;12.856;2024-02-26T07:43:06;23.50;29.70
15543;DHT22;7873;52.230;12.856;2024-02-26T07:45:32;23.50;30.00
15543;DHT22;7873;52.230;12.856;2024-02-26T07:48:00;23.50;29.90
15543;DHT22;7873;52.230;12.856;2024-02-26T07:50:26;23.50;30.00
15543;DHT22;7873;52.230;12.856;2024-02-26T07:52:53;23.50;30.00
15543;DHT22;7873;52.230;12.856;2024-02-26T07:55:19;23.50;30.20
15543;DHT22;7873;52.230;12.856;2024-02-26T07:57:47;23.50;30.30
15543;DHT22;7873;52.230;12.856;2024-02-26T08:00:14;23.50;30.50
15543;DHT22;7873;52.230;12.856;2024-02-26T08:02:42;23.60;30.60
15543;DHT22;7873;52.230;12.856;2024-02-26T08:05:10;23.50;30.80
15543;DHT22;7873;52.230;12.856;2024-02-26T08:07:36;23.60;30.90
15543;DHT22;7873;52.230;12.856;2024-02-26T08:10:03;23.60;30.90
15543;DHT22;7873;52.230;12.856;2024-02-26T08:12:30;23.60;30.90
15543;DHT22;7873;52.230;12.856;2024-02-26T08:14:56;23.60;31.00
15543;DHT22;7873;52.230;12.856;2024-02-26T08:17:23;23.50;31.20
15543;DHT22;7873;52.230;12.856;2024-02-26T08:19:49;23.60;31.30
15543;DHT22;7873;52.230;12.856;2024-02-26T08:22:17;23.60;31.40
15543;DHT22;7873;52.230;12.856;2024-02-26T08:24:44;23.50;31.40
15543;DHT22;7873;52.230;12.856;2024-02-26T08:27:11;23.50;31.50
15543;DHT22;7873;52.230;12.856;2024-02-26T08:29:37;23.50;31.60
15543;DHT22;7873;52.230;12.856;2024-02-26T08:32:04;23.50;31.70
15543;DHT22;7873;52.230;12.856;2024-02-26T08:34:32;23.50;31.80
15543;DHT22;7873;52.230;12.856;2024-02-26T08:36:58;23.40;31.80
15543;DHT22;7873;52.230;12.856;2024-02-26T08:39:26;23.40;32.00
15543;DHT22;7873;52.230;12.856;2024-02-26T08:41:53;23.40;32.10
15543;DHT22;7873;52.230;12.856;2024-02-26T08:44:19;23.40;32.90
15543;DHT22;7873;52.230;12.856;2024-02-26T08:46:45;23.40;32.30
15543;DHT22;7873;52.230;12.856;2024-02-26T08:49:12;23.30;32.30
15543;DHT22;7873;52.230;12.856;2024-02-26T08:51:41;23.30;33.20
15543;DHT22;7873;52.230;12.856;2024-02-26T08:54:07;23.20;32.50
15543;DHT22;7873;52.230;12.856;2024-02-26T08:56:35;23.20;32.40
15543;DHT22;7873;52.230;12.856;2024-02-26T08:59:02;23.20;32.60
15543;DHT22;7873;52.230;12.856;2024-02-26T09:01:29;23.20;32.70
15543;DHT22;7873;52.230;12.856;2024-02-26T09:03:55;23.20;32.70
15543;DHT22;7873;52.230;12.856;2024-02-26T09:06:22;23.20;32.70
15543;DHT22;7873;52.230;12.856;2024-02-26T09:08:48;23.10;32.70
15543;DHT22;7873;52.230;12.856;2024-02-26T09:11:15;23.20;32.70
15543;DHT22;7873;52.230;12.856;2024-02-26T09:13:43;23.20;32.80
15543;DHT22;7873;52.230;12.856;2024-02-26T09:16:09;23.20;32.80
15543;DHT22;7873;52.230;12.856;2024-02-26T09:18:38;23.20;32.80
15543;DHT22;7873;52.230;12.856;2024-02-26T09:21:04;23.20;32.80
15543;DHT22;7873;52.230;12.856;2024-02-26T09:23:31;23.20;32.90
15543;DHT22;7873;52.230;12.856;2024-02-26T09:25:58;23.20;32.90
15543;DHT22;7873;52.230;12.856;2024-02-26T09:28:25;23.20;32.90
15543;DHT22;7873;52.230;12.856;2024-02-26T09:30:52;23.30;32.90
15543;DHT22;7873;52.230;12.856;2024-02-26T09:33:19;23.30;33.00
15543;DHT22;7873;52.230;12.856;2024-02-26T09:35:46;23.30;33.00
15543;DHT22;7873;52.230;12.856;2024-02-26T09:38:12;23.30;33.00
15543;DHT22;7873;52.230;12.856;2024-02-26T09:40:39;23.20;33.10
15543;DHT22;7873;52.230;12.856;2024-02-26T09:43:06;23.20;33.10
15543;DHT22;7873;52.230;12.856;2024-02-26T09:45:36;23.20;33.10
15543;DHT22;7873;52.230;12.856;2024-02-26T09:48:04;23.20;33.30
15543;DHT22;7873;52.230;12.856;2024-02-26T09:50:34;23.20;33.30
15543;DHT22;7873;52.230;12.856;2024-02-26T09:53:01;23.20;33.40
15543;DHT22;7873;52.230;12.856;2024-02-26T09:55:28;23.10;33.50
15543;DHT22;7873;52.230;12.856;2024-02-26T09:57:55;23.10;33.50
15543;DHT22;7873;52.230;12.856;2024-02-26T10:00:22;23.10;33.60
15543;DHT22;7873;52.230;12.856;2024-02-26T10:02:49;23.00;33.60
15543;DHT22;7873;52.230;12.856;2024-02-26T10:05:18;23.00;33.70
15543;DHT22;7873;52.230;12.856;2024-02-26T10:07:45;23.00;33.70
15543;DHT22;7873;52.230;12.856;2024-02-26T10:10:13;23.00;33.80
15543;DHT22;7873;52.230;12.856;2024-02-26T10:12:40;23.00;33.80
15543;DHT22;7873;52.230;12.856;2024-02-26T10:15:07;23.00;33.80
15543;DHT22;7873;52.230;12.856;2024-02-26T10:17:34;23.00;33.90
15543;DHT22;7873;52.230;12.856;2024-02-26T10:20:11;23.00;33.80
15543;DHT22;7873;52.230;12.856;2024-02-26T10:22:40;23.00;34.70
15543;DHT22;7873;52.230;12.856;2024-02-26T10:25:07;23.00;34.70
15543;DHT22;7873;52.230;12.856;2024-02-26T10:27:34;23.00;33.90
15543;DHT22;7873;52.230;12.856;2024-02-26T10:30:02;23.00;34.00
15543;DHT22;7873;52.230;12.856;2024-02-26T10:32:29;23.10;34.00
15543;DHT22;7873;52.230;12.856;2024-02-26T10:34:56;23.10;34.00
15543;DHT22;7873;52.230;12.856;2024-02-26T10:37:23;23.10;34.00
15543;DHT22;7873;52.230;12.856;2024-02-26T10:39:51;23.10;34.00
15543;DHT22;7873;52.230;12.856;2024-02-26T10:42:18;23.10;34.00
15543;DHT22;7873;52.230;12.856;2024-02-26T10:44:45;23.10;34.00
15543;DHT22;7873;52.230;12.856;2024-02-26T10:47:14;23.10;34.10
15543;DHT22;7873;52.230;12.856;2024-02-26T10:49:44;23.10;34.10
15543;DHT22;7873;52.230;12.856;2024-02-26T10:52:12;23.10;34.10
15543;DHT22;7873;52.230;12.856;2024-02-26T10:54:39;23.10;34.00
15543;DHT22;7873;52.230;12.856;2024-02-26T10:57:10;23.10;34.10
15543;DHT22;7873;52.230;12.856;2024-02-26T10:59:37;23.10;34.10
15543;DHT22;7873;52.230;12.856;2024-02-26T11:02:05;23.10;34.10
15543;DHT22;7873;52.230;12.856;2024-02-26T11:04:35;23.10;34.10
15543;DHT22;7873;52.230;12.856;2024-02-26T11:07:02;23.10;34.10
15543;DHT22;7873;52.230;12.856;2024-02-26T11:09:31;23.10;34.10
15543;DHT22;7873;52.230;12.856;2024-02-26T11:11:58;23.10;34.10
15543;DHT22;7873;52.230;12.856;2024-02-26T11:14:27;23.10;34.20
15543;DHT22;7873;52.230;12.856;2024-02-26T11:16:56;23.10;34.20
15543;DHT22;7873;52.230;12.856;2024-02-26T11:19:24;23.10;34.30
15543;DHT22;7873;52.230;12.856;2024-02-26T11:21:52;23.00;34.20
15543;DHT22;7873;52.230;12.856;2024-02-26T11:24:18;23.00;34.20
15543;DHT22;7873;52.230;12.856;2024-02-26T11:26:46;23.00;34.30
15543;DHT22;7873;52.230;12.856;2024-02-26T11:29:16;23.00;34.40
15543;DHT22;7873;52.230;12.856;2024-02-26T11:31:48;23.00;34.40
15543;DHT22;7873;52.230;12.856;2024-02-26T11:34:15;23.00;34.40
15543;DHT22;7873;52.230;12.856;2024-02-26T11:36:43;23.00;34.50
15543;DHT22;7873;52.230;12.856;2024-02-26T11:39:10;23.00;34.50
15543;DHT22;7873;52.230;12.856;2024-02-26T11:41:38;23.00;34.50
15543;DHT22;7873;52.230;12.856;2024-02-26T11:44:04;23.00;34.40
15543;DHT22;7873;52.230;12.856;2024-02-26T11:46:32;23.00;34.50
15543;DHT22;7873;52.230;12.856;2024-02-26T11:49:31;23.00;34.40
15543;DHT22;7873;52.230;12.856;2024-02-26T11:51:59;23.00;34.50
15543;DHT22;7873;52.230;12.856;2024-02-26T11:54:45;23.00;34.50
15543;DHT22;7873;52.230;12.856;2024-02-26T11:57:23;23.00;34.60
15543;DHT22;7873;52.230;12.856;2024-02-26T11:59:51;23.00;34.60
15543;DHT22;7873;52.230;12.856;2024-02-26T12:05:14;23.00;34.60
15543;DHT22;7873;52.230;12.856;2024-02-26T12:07:43;23.00;34.60
15543;DHT22;7873;52.230;12.856;2024-02-26T12:10:21;23.00;34.60
15543;DHT22;7873;52.230;12.856;2024-02-26T12:12:52;23.00;34.50
15543;DHT22;7873;52.230;12.856;2024-02-26T12:15:22;23.00;34.60
15543;DHT22;7873;52.230;12.856;2024-02-26T12:17:49;23.00;34.60
15543;DHT22;7873;52.230;12.856;2024-02-26T12:20:17;23.00;34.60
15543;DHT22;7873;52.230;12.856;2024-02-26T12:22:45;23.00;34.50
15543;DHT22;7873;52.230;12.856;2024-02-26T12:25:13;23.00;34.50
15543;DHT22;7873;52.230;12.856;2024-02-26T12:27:39;23.00;34.60
15543;DHT22;7873;52.230;12.856;2024-02-26T12:30:08;23.00;34.60
15543;DHT22;7873;52.230;12.856;2024-02-26T12:32:35;23.00;34.60
15543;DHT22;7873;52.230;12.856;2024-02-26T12:35:02;23.00;34.60
15543;DHT22;7873;52.230;12.856;2024-02-26T12:37:31;23.00;34.60
15543;DHT22;7873;52.230;12.856;2024-02-26T12:39:58;23.00;34.70
15543;DHT22;7873;52.230;12.856;2024-02-26T12:42:25;23.00;34.70
15543;DHT22;7873;52.230;12.856;2024-02-26T12:44:52;23.00;35.50
15543;DHT22;7873;52.230;12.856;2024-02-26T12:47:18;23.00;34.70
15543;DHT22;7873;52.230;12.856;2024-02-26T12:49:46;23.00;34.80
15543;DHT22;7873;52.230;12.856;2024-02-26T12:52:13;23.00;34.80
15543;DHT22;7873;52.230;12.856;2024-02-26T12:54:41;22.90;34.80
15543;DHT22;7873;52.230;12.856;2024-02-26T12:57:08;22.90;34.80
15543;DHT22;7873;52.230;12.856;2024-02-26T12:59:35;22.90;34.90
15543;DHT22;7873;52.230;12.856;2024-02-26T13:02:03;22.90;34.90
15543;DHT22;7873;52.230;12.856;2024-02-26T13:04:31;22.90;34.90
15543;DHT22;7873;52.230;12.856;2024-02-26T13:06:57;22.80;34.90
15543;DHT22;7873;52.230;12.856;2024-02-26T13:09:28;22.80;34.90
15543;DHT22;7873;52.230;12.856;2024-02-26T13:12:00;22.80;34.90
15543;DHT22;7873;52.230;12.856;2024-02-26T13:14:30;22.90;34.90
15543;DHT22;7873;52.230;12.856;2024-02-26T13:16:57;22.80;34.90
15543;DHT22;7873;52.230;12.856;2024-02-26T13:19:24;22.80;34.90
15543;DHT22;7873;52.230;12.856;2024-02-26T13:21:50;22.80;34.90
15543;DHT22;7873;52.230;12.856;2024-02-26T13:24:17;22.80;34.90
15543;DHT22;7873;52.230;12.856;2024-02-26T13:26:47;22.80;34.90
15543;DHT22;7873;52.230;12.856;2024-02-26T13:29:21;22.80;35.00
15543;DHT22;7873;52.230;12.856;2024-02-26T13:31:53;22.80;35.00
15543;DHT22;7873;52.230;12.856;2024-02-26T13:34:23;22.70;35.00
15543;DHT22;7873;52.230;12.856;2024-02-26T13:36:51;22.70;35.00
15543;DHT22;7873;52.230;12.856;2024-02-26T13:39:21;22.70;35.00
15543;DHT22;7873;52.230;12.856;2024-02-26T13:41:48;22.70;35.00
15543;DHT22;7873;52.230;12.856;2024-02-26T13:44:15;22.70;35.10
15543;DHT22;7873;52.230;12.856;2024-02-26T13:46:43;22.70;35.10
15543;DHT22;7873;52.230;12.856;2024-02-26T13:49:09;22.70;35.20
15543;DHT22;7873;52.230;12.856;2024-02-26T13:51:36;22.70;35.20
15543;DHT22;7873;52.230;12.856;2024-02-26T13:54:03;22.70;35.20
15543;DHT22;7873;52.230;12.856;2024-02-26T13:56:28;22.70;35.20
15543;DHT22;7873;52.230;12.856;2024-02-26T13:58:55;22.60;35.10
15543;DHT22;7873;52.230;12.856;2024-02-26T14:01:22;22.70;35.20
15543;DHT22;7873;52.230;12.856;2024-02-26T14:03:49;22.70;35.20
15543;DHT22;7873;52.230;12.856;2024-02-26T14:06:16;22.60;35.20
15543;DHT22;7873;52.230;12.856;2024-02-26T14:08:42;22.70;35.30
15543;DHT22;7873;52.230;12.856;2024-02-26T14:11:09;22.60;35.20
15543;DHT22;7873;52.230;12.856;2024-02-26T14:13:35;22.60;35.20
15543;DHT22;7873;52.230;12.856;2024-02-26T14:16:02;22.60;35.20
15543;DHT22;7873;52.230;12.856;2024-02-26T14:18:29;22.60;35.30
15543;DHT22;7873;52.230;12.856;2024-02-26T14:20:57;22.60;35.30
15543;DHT22;7873;52.230;12.856;2024-02-26T14:23:23;22.60;35.40
15543;DHT22;7873;52.230;12.856;2024-02-26T14:25:49;22.60;35.30
15543;DHT22;7873;52.230;12.856;2024-02-26T14:28:16;22.60;35.40
15543;DHT22;7873;52.230;12.856;2024-02-26T14:30:42;22.60;35.40
15543;DHT22;7873;52.230;12.856;2024-02-26T14:33:09;22.60;35.50
15543;DHT22;7873;52.230;12.856;2024-02-26T14:35:35;22.60;35.50
15543;DHT22;7873;52.230;12.856;2024-02-26T14:38:03;22.50;35.50
15543;DHT22;7873;52.230;12.856;2024-02-26T14:40:30;22.50;35.50
15543;DHT22;7873;52.230;12.856;2024-02-26T14:42:57;22.50;35.50
15543;DHT22;7873;52.230;12.856;2024-02-26T14:45:25;22.50;35.50
15543;DHT22;7873;52.230;12.856;2024-02-26T14:47:51;22.50;35.50
15543;DHT22;7873;52.230;12.856;2024-02-26T14:50:17;22.50;35.60
15543;DHT22;7873;52.230;12.856;2024-02-26T14:52:44;22.50;35.60
15543;DHT22;7873;52.230;12.856;2024-02-26T14:55:12;22.50;35.70
15543;DHT22;7873;52.230;12.856;2024-02-26T14:57:38;22.50;35.70
15543;DHT22;7873;52.230;12.856;2024-02-26T15:00:05;22.50;35.60
15543;DHT22;7873;52.230;12.856;2024-02-26T15:02:33;22.50;35.60
15543;DHT22;7873;52.230;12.856;2024-02-26T15:04:59;22.50;35.60
15543;DHT22;7873;52.230;12.856;2024-02-26T15:07:26;22.50;35.60
15543;DHT22;7873;52.230;12.856;2024-02-26T15:09:52;22.50;36.40
15543;DHT22;7873;52.230;12.856;2024-02-26T15:12:23;22.50;35.60
15543;DHT22;7873;52.230;12.856;2024-02-26T15:14:50;22.50;36.40
15543;DHT22;7873;52.230;12.856;2024-02-26T15:17:16;22.50;36.80
15543;DHT22;7873;52.230;12.856;2024-02-26T15:19:43;22.50;36.80
15543;DHT22;7873;52.230;12.856;2024-02-26T15:22:09;22.50;38.00
15543;DHT22;7873;52.230;12.856;2024-02-26T15:24:36;22.50;37.50
15543;DHT22;7873;52.230;12.856;2024-02-26T15:27:03;22.50;37.60
15543;DHT22;7873;52.230;12.856;2024-02-26T15:29:31;22.50;37.60
15543;DHT22;7873;52.230;12.856;2024-02-26T15:31:57;22.60;37.50